createdAt,value
2023-03-11T00:00:26.762Z,47.01
2023-03-11T00:02:57.037Z,47.05
2023-03-11T00:05:27.651Z,47.00
2023-03-11T00:07:56.875Z,46.95
2023-03-11T00:10:29.678Z,46.91
2023-03-11T00:12:58.842Z,46.74
2023-03-11T00:15:29.433Z,46.71
2023-03-11T00:17:59.100Z,46.67
2023-03-11T00:20:29.758Z,46.75
2023-03-11T00:22:58.592Z,46.84
2023-03-11T00:25:29.690Z,46.69
2023-03-11T00:27:58.961Z,46.89
2023-03-11T00:30:29.282Z,46.53
2023-03-11T00:32:58.970Z,46.74
2023-03-11T00:35:29.345Z,46.53
2023-03-11T00:37:59.370Z,46.53
2023-03-11T00:40:29.629Z,46.68
2023-03-11T00:42:58.386Z,46.69
2023-03-11T00:45:28.519Z,46.69
2023-03-11T00:47:57.362Z,46.54
2023-03-11T00:50:27.635Z,46.47
2023-03-11T00:52:56.241Z,46.73
2023-03-11T00:55:26.558Z,46.32
2023-03-11T00:57:55.605Z,46.50
2023-03-11T01:00:26.439Z,46.38
2023-03-11T01:02:58.564Z,46.44
2023-03-11T01:05:30.254Z,46.29
2023-03-11T01:08:02.276Z,46.35
2023-03-11T01:10:32.858Z,46.27
2023-03-11T01:13:03.485Z,46.30
2023-03-11T01:15:35.323Z,46.10
2023-03-11T01:18:08.223Z,46.14
2023-03-11T01:20:38.938Z,46.32
2023-03-11T01:23:10.725Z,46.01
2023-03-11T01:25:43.396Z,45.96
2023-03-11T01:28:16.679Z,45.99
2023-03-11T01:30:55.146Z,45.83
2023-03-11T01:33:31.691Z,45.86
2023-03-11T01:36:03.850Z,45.89
2023-03-11T01:38:41.734Z,45.92
2023-03-11T01:41:15.680Z,45.80
2023-03-11T01:43:57.482Z,46.00
2023-03-11T01:46:39.194Z,45.87
2023-03-11T01:49:16.047Z,45.99
2023-03-11T01:51:50.365Z,45.86
2023-03-11T01:54:28.743Z,45.64
2023-03-11T01:56:59.865Z,45.78
2023-03-11T01:59:35.048Z,45.87
2023-03-11T02:02:10.805Z,45.48
2023-03-11T02:04:44.075Z,45.68
2023-03-11T02:07:16.012Z,45.40
2023-03-11T02:09:47.531Z,45.53
2023-03-11T02:12:19.259Z,45.44
2023-03-11T02:14:51.615Z,45.61
2023-03-11T02:17:23.029Z,45.67
2023-03-11T02:20:24.214Z,45.39
2023-03-11T02:22:57.628Z,45.38
2023-03-11T02:25:36.604Z,45.67
2023-03-11T02:28:10.415Z,45.40
2023-03-11T02:30:43.170Z,45.54
2023-03-11T02:33:15.093Z,45.49
2023-03-11T02:35:46.288Z,45.39
2023-03-11T02:38:16.148Z,45.19
2023-03-11T02:40:54.556Z,45.24
2023-03-11T02:43:37.795Z,45.30
2023-03-11T02:46:10.391Z,45.30
2023-03-11T02:48:46.520Z,45.28
2023-03-11T02:51:18.456Z,45.10
2023-03-11T02:53:51.537Z,44.89
2023-03-11T02:56:22.339Z,45.24
2023-03-11T02:58:55.059Z,45.01
2023-03-11T03:01:27.645Z,45.08
2023-03-11T03:04:01.442Z,45.13
2023-03-11T03:06:34.895Z,44.90
2023-03-11T03:09:06.929Z,44.91
2023-03-11T03:11:38.405Z,44.93
2023-03-11T03:14:12.390Z,44.69
2023-03-11T03:16:43.495Z,44.85
2023-03-11T03:19:14.859Z,44.82
2023-03-11T03:21:46.842Z,44.92
2023-03-11T03:24:18.777Z,44.93
2023-03-11T03:26:53.614Z,44.85
2023-03-11T03:29:24.090Z,44.75
2023-03-11T03:31:52.829Z,44.75
2023-03-11T03:34:21.394Z,44.81
2023-03-11T03:36:50.030Z,44.65
2023-03-11T03:39:20.088Z,44.65
2023-03-11T03:41:48.780Z,44.62
2023-03-11T03:44:17.368Z,44.66
2023-03-11T03:46:47.626Z,44.57
2023-03-11T03:49:16.199Z,44.51
2023-03-11T03:51:44.814Z,44.50
2023-03-11T03:54:13.499Z,44.53
2023-03-11T03:56:42.393Z,44.63
2023-03-11T03:59:10.920Z,44.44
2023-03-11T04:01:39.528Z,44.54
2023-03-11T04:04:09.411Z,44.31
2023-03-11T04:06:37.934Z,44.32
2023-03-11T04:09:06.514Z,44.36
2023-03-11T04:11:35.302Z,44.49
2023-03-11T04:14:03.868Z,44.44
2023-03-11T04:16:32.617Z,44.36
2023-03-11T04:19:01.172Z,44.27
2023-03-11T04:21:31.101Z,44.31
2023-03-11T04:23:59.712Z,44.21
2023-03-11T04:26:28.544Z,44.30
2023-03-11T04:28:57.257Z,44.15
2023-03-11T04:31:25.905Z,44.29
2023-03-11T04:33:54.677Z,44.21
2023-03-11T04:36:23.279Z,44.01
2023-03-11T04:38:53.165Z,44.10
2023-03-11T04:41:21.692Z,44.00
2023-03-11T04:43:50.218Z,43.96
2023-03-11T04:46:18.834Z,44.07
2023-03-11T04:48:47.426Z,44.07
2023-03-11T04:51:16.194Z,43.99
2023-03-11T04:53:44.740Z,43.88
2023-03-11T04:56:14.637Z,43.90
2023-03-11T04:58:43.162Z,43.85
2023-03-11T05:01:11.766Z,43.94
2023-03-11T05:03:40.395Z,44.00
2023-03-11T05:06:09.223Z,43.91
2023-03-11T05:08:37.742Z,43.95
2023-03-11T05:11:07.175Z,43.67
2023-03-11T05:13:37.130Z,43.72
2023-03-11T05:16:06.914Z,43.89
2023-03-11T05:18:35.485Z,43.64
2023-03-11T05:21:03.992Z,43.53
2023-03-11T05:23:32.539Z,43.67
2023-03-11T05:26:01.220Z,43.72
2023-03-11T05:28:29.978Z,43.70
2023-03-11T05:30:59.913Z,43.50
2023-03-11T05:33:32.368Z,43.60
2023-03-11T05:36:06.992Z,43.36
2023-03-11T05:38:35.917Z,43.36
2023-03-11T05:41:04.563Z,43.27
2023-03-11T05:43:33.193Z,43.29
2023-03-11T05:46:03.183Z,43.12
2023-03-11T05:48:31.793Z,43.30
2023-03-11T05:51:00.527Z,42.99
2023-03-11T05:53:29.161Z,43.02
2023-03-11T05:55:58.501Z,43.06
2023-03-11T05:58:27.700Z,43.03
2023-03-11T06:00:56.404Z,42.98
2023-03-11T06:03:26.566Z,43.08
2023-03-11T06:05:55.757Z,43.03
2023-03-11T06:08:24.865Z,42.89
2023-03-11T06:10:53.491Z,43.05
2023-03-11T06:13:22.118Z,43.01
2023-03-11T06:15:50.825Z,42.79
2023-03-11T06:18:19.610Z,43.01
2023-03-11T06:20:51.559Z,43.29
2023-03-11T06:23:20.388Z,42.97
2023-03-11T06:25:57.636Z,42.98
2023-03-11T06:28:26.664Z,42.89
2023-03-11T06:30:56.964Z,42.75
2023-03-11T06:33:25.758Z,42.71
2023-03-11T06:36:02.709Z,42.68
2023-03-11T06:38:31.370Z,42.70
2023-03-11T06:41:01.434Z,42.69
2023-03-11T06:43:29.963Z,42.70
2023-03-11T06:45:58.746Z,42.78
2023-03-11T06:48:27.560Z,42.53
2023-03-11T06:50:56.707Z,42.78
2023-03-11T06:53:26.909Z,42.62
2023-03-11T06:56:02.813Z,42.71
2023-03-11T06:58:31.515Z,42.64
2023-03-11T07:01:03.308Z,42.78
2023-03-11T07:03:32.099Z,42.63
2023-03-11T07:06:00.790Z,42.66
2023-03-11T07:08:31.192Z,42.71
2023-03-11T07:11:05.446Z,42.49
2023-03-11T07:13:34.111Z,42.45
2023-03-11T07:16:04.362Z,42.66
2023-03-11T07:18:33.192Z,42.63
2023-03-11T07:21:03.054Z,42.49
2023-03-11T07:23:33.010Z,42.58
2023-03-11T07:26:01.734Z,42.54
2023-03-11T07:28:30.787Z,42.39
2023-03-11T07:30:59.741Z,42.43
2023-03-11T07:33:28.817Z,42.61
2023-03-11T07:35:57.392Z,42.58
2023-03-11T07:38:26.134Z,42.34
2023-03-11T07:41:00.985Z,42.54
2023-03-11T07:43:29.612Z,42.46
2023-03-11T07:46:06.468Z,42.38
2023-03-11T07:48:35.779Z,42.54
2023-03-11T07:51:05.583Z,42.41
2023-03-11T07:53:34.321Z,42.70
2023-03-11T07:56:04.516Z,42.62
2023-03-11T07:58:33.204Z,42.85
2023-03-11T08:01:07.126Z,42.89
2023-03-11T08:03:35.910Z,43.74
2023-03-11T08:06:04.952Z,43.31
2023-03-11T08:08:33.507Z,43.07
2023-03-11T08:11:07.260Z,43.67
2023-03-11T08:13:35.860Z,43.43
2023-03-11T08:16:05.722Z,43.25
2023-03-11T08:18:34.840Z,43.26
2023-03-11T08:21:06.460Z,42.59
2023-03-11T08:23:35.143Z,41.59
2023-03-11T08:26:06.639Z,41.54
2023-03-11T08:28:35.472Z,41.59
2023-03-11T08:31:04.103Z,41.97
2023-03-11T08:33:32.687Z,42.36
2023-03-11T08:36:01.767Z,43.27
2023-03-11T08:38:30.531Z,43.30
2023-03-11T08:40:59.170Z,44.23
2023-03-11T08:43:29.203Z,44.34
2023-03-11T08:45:57.992Z,43.66
2023-03-11T08:48:26.961Z,43.25
2023-03-11T08:50:55.590Z,43.38
2023-03-11T08:53:24.320Z,43.07
2023-03-11T08:55:53.244Z,43.52
2023-03-11T08:58:22.026Z,43.67
2023-03-11T09:00:51.931Z,43.99
2023-03-11T09:03:20.708Z,43.79
2023-03-11T09:05:49.360Z,44.01
2023-03-11T09:08:18.019Z,42.59
2023-03-11T09:10:46.602Z,37.10
2023-03-11T09:13:15.224Z,33.72
2023-03-11T09:15:43.842Z,41.16
2023-03-11T09:18:14.850Z,39.52
2023-03-11T09:20:43.591Z,39.61
2023-03-11T09:23:14.357Z,38.82
2023-03-11T09:25:43.012Z,38.77
2023-03-11T09:28:11.591Z,39.41
2023-03-11T09:30:40.175Z,38.06
2023-03-11T09:33:08.893Z,37.85
2023-03-11T09:35:39.780Z,37.99
2023-03-11T09:38:08.430Z,36.87
2023-03-11T09:40:48.208Z,37.30
2023-03-11T09:43:23.516Z,36.11
2023-03-11T09:45:56.416Z,37.12
2023-03-11T09:48:26.835Z,37.29
2023-03-11T09:50:59.213Z,37.71
2023-03-11T09:53:33.918Z,38.02
2023-03-11T09:56:04.295Z,38.04
2023-03-11T09:58:39.240Z,38.46
2023-03-11T10:01:15.870Z,38.88
2023-03-11T10:03:44.485Z,38.97
2023-03-11T10:06:23.185Z,39.10
2023-03-11T10:08:58.391Z,39.26
2023-03-11T10:11:55.761Z,39.42
2023-03-11T10:14:47.797Z,39.10
2023-03-11T10:17:24.205Z,39.34
2023-03-11T10:19:56.700Z,39.65
2023-03-11T10:22:29.195Z,39.96
2023-03-11T10:25:07.205Z,40.09
2023-03-11T10:27:41.955Z,39.93
2023-03-11T10:30:16.695Z,40.24
2023-03-11T10:32:47.817Z,40.23
2023-03-11T10:35:20.976Z,40.27
2023-03-11T10:37:54.718Z,39.96
2023-03-11T10:40:29.866Z,40.24
2023-03-11T10:43:00.539Z,40.48
2023-03-11T10:45:41.391Z,40.44
2023-03-11T10:48:12.415Z,40.64
2023-03-11T10:50:48.909Z,40.47
2023-03-11T10:53:19.950Z,40.49
2023-03-11T10:55:50.163Z,40.60
2023-03-11T10:58:21.320Z,40.39
2023-03-11T11:01:02.517Z,40.32
2023-03-11T11:03:31.320Z,40.32
2023-03-11T11:06:03.336Z,40.46
2023-03-11T11:08:34.008Z,40.40
2023-03-11T11:11:03.566Z,40.33
2023-03-11T11:13:34.580Z,40.54
2023-03-11T11:16:05.114Z,40.27
2023-03-11T11:18:35.811Z,40.08
2023-03-11T11:21:06.770Z,40.34
2023-03-11T11:23:40.276Z,40.38
2023-03-11T11:26:18.787Z,40.00
2023-03-11T11:28:47.863Z,40.04
2023-03-11T11:31:25.374Z,40.12
2023-03-11T11:33:54.934Z,40.24
2023-03-11T11:36:26.867Z,40.10
2023-03-11T11:38:56.988Z,40.11
2023-03-11T11:41:26.156Z,39.97
2023-03-11T11:43:55.495Z,40.24
2023-03-11T11:46:28.182Z,40.02
2023-03-11T11:49:05.419Z,40.28
2023-03-11T11:51:36.533Z,39.97
2023-03-11T11:54:15.404Z,40.30
2023-03-11T11:56:44.071Z,40.41
2023-03-11T11:59:18.915Z,40.48
2023-03-11T12:01:57.128Z,40.28
2023-03-11T12:04:49.472Z,40.60
2023-03-11T12:07:42.340Z,40.64
2023-03-11T12:10:24.149Z,40.93
2023-03-11T12:13:26.956Z,40.99
2023-03-11T12:15:57.991Z,41.79
2023-03-11T12:18:29.627Z,42.46
2023-03-11T12:20:59.267Z,42.58
2023-03-11T12:23:39.102Z,42.02
2023-03-11T12:26:16.648Z,43.02
2023-03-11T12:28:49.196Z,43.22
2023-03-11T12:31:17.909Z,41.29
2023-03-11T12:33:47.507Z,41.75
2023-03-11T12:36:25.235Z,41.27
2023-03-11T12:38:54.096Z,41.95
2023-03-11T12:41:32.403Z,42.86
2023-03-11T12:44:06.323Z,42.99
2023-03-11T12:47:03.950Z,42.44
2023-03-11T12:49:33.023Z,42.82
2023-03-11T12:52:18.270Z,43.29
2023-03-11T12:54:47.578Z,43.69
2023-03-11T12:57:45.598Z,43.63
2023-03-11T13:00:29.239Z,43.43
2023-03-11T13:03:30.814Z,43.25
2023-03-11T13:06:05.617Z,42.62
2023-03-11T13:08:36.551Z,43.25
2023-03-11T13:11:35.204Z,43.08
2023-03-11T13:14:32.049Z,41.94
2023-03-11T13:17:27.822Z,42.40
2023-03-11T13:19:56.984Z,38.03
2023-03-11T13:23:21.821Z,41.81
2023-03-11T13:26:24.440Z,41.41
2023-03-11T13:29:26.225Z,41.69
2023-03-11T13:32:18.748Z,40.92
2023-03-11T13:34:49.740Z,41.51
2023-03-11T13:37:28.221Z,41.74
2023-03-11T13:40:14.076Z,41.53
2023-03-11T13:42:46.371Z,41.19
2023-03-11T13:45:28.741Z,41.15
2023-03-11T13:47:59.989Z,41.08
2023-03-11T13:50:31.162Z,41.12
2023-03-11T13:53:00.641Z,40.91
2023-03-11T13:55:33.464Z,41.01
2023-03-11T13:58:02.080Z,40.81
2023-03-11T14:00:34.064Z,40.79
2023-03-11T14:03:04.553Z,40.86
2023-03-11T14:05:33.722Z,40.69
2023-03-11T14:08:13.788Z,40.78
2023-03-11T14:10:42.411Z,40.71
2023-03-11T14:13:18.483Z,40.73
2023-03-11T14:15:58.447Z,40.50
2023-03-11T14:18:30.075Z,40.36
2023-03-11T14:20:58.923Z,40.34
2023-03-11T14:23:30.985Z,40.45
2023-03-11T14:26:01.761Z,36.73
2023-03-11T14:28:30.515Z,34.66
2023-03-11T14:31:01.772Z,34.30
2023-03-11T14:33:30.599Z,36.00
2023-03-11T14:36:00.518Z,37.04
2023-03-11T14:38:30.933Z,38.22
2023-03-11T14:41:00.560Z,38.62
2023-03-11T14:43:30.051Z,38.79
2023-03-11T14:46:00.258Z,39.10
2023-03-11T14:48:30.576Z,39.23
2023-03-11T14:50:59.916Z,39.56
2023-03-11T14:53:29.912Z,39.42
2023-03-11T14:55:59.702Z,39.52
2023-03-11T14:58:34.757Z,39.52
2023-03-11T15:01:07.464Z,39.54
2023-03-11T15:03:37.315Z,39.53
2023-03-11T15:06:08.073Z,39.57
2023-03-11T15:08:44.495Z,39.53
2023-03-11T15:11:22.533Z,39.73
2023-03-11T15:13:51.770Z,39.87
2023-03-11T15:16:31.371Z,39.80
2023-03-11T15:19:02.107Z,40.05
2023-03-11T15:21:31.344Z,39.79
2023-03-11T15:24:05.144Z,39.92
2023-03-11T15:26:35.139Z,39.79
2023-03-11T15:29:06.998Z,39.65
2023-03-11T15:31:37.984Z,39.66
2023-03-11T15:34:31.688Z,39.54
2023-03-11T15:37:20.616Z,39.73
2023-03-11T15:39:52.225Z,39.76
2023-03-11T15:42:24.488Z,39.61
2023-03-11T15:45:19.441Z,39.59
2023-03-11T15:47:50.823Z,40.10
2023-03-11T15:50:40.158Z,39.77
2023-03-11T15:53:15.689Z,39.96
2023-03-11T15:55:44.367Z,40.01
2023-03-11T15:58:15.299Z,39.89
2023-03-11T16:00:47.581Z,39.89
2023-03-11T16:03:17.645Z,40.11
2023-03-11T16:05:46.630Z,40.06
2023-03-11T16:08:15.351Z,40.09
2023-03-11T16:10:43.978Z,40.01
2023-03-11T16:13:13.291Z,39.57
2023-03-11T16:15:42.375Z,40.00
2023-03-11T16:18:11.952Z,39.79
2023-03-11T16:20:43.411Z,39.81
2023-03-11T16:23:14.317Z,39.84
2023-03-11T16:25:43.021Z,39.54
2023-03-11T16:28:12.560Z,39.59
2023-03-11T16:30:41.194Z,39.37
2023-03-11T16:33:09.841Z,39.71
2023-03-11T16:35:38.869Z,39.83
2023-03-11T16:38:09.469Z,39.61
2023-03-11T16:40:38.151Z,39.88
2023-03-11T16:43:08.242Z,39.84
2023-03-11T16:45:39.311Z,39.71
2023-03-11T16:48:08.508Z,39.79
2023-03-11T16:50:37.696Z,39.82
2023-03-11T16:53:06.329Z,39.64
2023-03-11T16:55:36.350Z,39.71
2023-03-11T16:58:05.065Z,39.63
2023-03-11T17:00:33.825Z,39.35
2023-03-11T17:03:02.688Z,39.20
2023-03-11T17:05:31.330Z,39.24
2023-03-11T17:08:04.249Z,39.61
2023-03-11T17:10:38.747Z,39.46
2023-03-11T17:13:07.513Z,39.36
2023-03-11T17:15:38.068Z,39.34
2023-03-11T17:18:06.873Z,39.32
2023-03-11T17:20:37.219Z,39.26
2023-03-11T17:23:05.831Z,39.41
2023-03-11T17:25:34.549Z,39.39
2023-03-11T17:28:04.633Z,39.16
2023-03-11T17:30:37.140Z,39.40
2023-03-11T17:33:06.165Z,39.41
2023-03-11T17:35:35.023Z,39.26
2023-03-11T17:38:03.704Z,39.46
2023-03-11T17:40:32.899Z,39.52
2023-03-11T17:43:03.206Z,39.29
2023-03-11T17:45:31.971Z,39.34
2023-03-11T17:48:00.963Z,39.31
2023-03-11T17:50:29.702Z,39.32
2023-03-11T17:52:58.489Z,39.39
2023-03-11T17:55:27.087Z,39.13
2023-03-11T17:57:55.765Z,39.27
2023-03-11T18:00:26.187Z,39.25
2023-03-11T18:02:54.887Z,39.22
2023-03-11T18:05:23.654Z,39.20
2023-03-11T18:07:52.415Z,38.99
2023-03-11T18:10:21.674Z,39.06
2023-03-11T18:12:50.231Z,38.92
2023-03-11T18:15:20.126Z,38.86
2023-03-11T18:17:50.342Z,39.21
2023-03-11T18:20:19.443Z,39.30
2023-03-11T18:22:48.088Z,39.29
2023-03-11T18:25:16.947Z,39.38
2023-03-11T18:27:45.518Z,39.26
2023-03-11T18:30:15.583Z,39.28
2023-03-11T18:32:44.900Z,39.43
2023-03-11T18:35:17.494Z,39.41
2023-03-11T18:37:46.723Z,39.52
2023-03-11T18:40:16.046Z,39.70
2023-03-11T18:42:47.462Z,39.52
2023-03-11T18:45:16.656Z,40.11
2023-03-11T18:47:45.351Z,40.94
2023-03-11T18:50:15.335Z,40.59
2023-03-11T18:52:43.948Z,40.24
2023-03-11T18:55:12.569Z,40.17
2023-03-11T18:57:43.237Z,40.17
2023-03-11T19:00:13.484Z,39.97
2023-03-11T19:02:42.191Z,40.09
2023-03-11T19:05:11.316Z,40.05
2023-03-11T19:07:41.284Z,39.82
2023-03-11T19:10:12.383Z,39.96
2023-03-11T19:12:43.703Z,39.89
2023-03-11T19:15:13.479Z,39.97
2023-03-11T19:17:42.184Z,40.04
2023-03-11T19:20:13.029Z,40.13
2023-03-11T19:22:43.244Z,40.07
2023-03-11T19:25:11.917Z,40.03
2023-03-11T19:27:40.456Z,40.07
2023-03-11T19:30:10.997Z,39.89
2023-03-11T19:32:39.603Z,39.79
2023-03-11T19:35:10.984Z,39.87
2023-03-11T19:37:41.931Z,40.14
2023-03-11T19:40:14.753Z,39.78
2023-03-11T19:42:43.466Z,39.86
2023-03-11T19:45:12.858Z,39.72
2023-03-11T19:47:41.520Z,39.87
2023-03-11T19:50:12.011Z,39.63
2023-03-11T19:52:40.597Z,39.66
2023-03-11T19:55:11.575Z,39.61
2023-03-11T19:57:40.266Z,39.64
2023-03-11T20:00:10.653Z,39.58
2023-03-11T20:02:39.421Z,39.53
2023-03-11T20:05:10.288Z,39.45
2023-03-11T20:07:39.038Z,39.41
2023-03-11T20:10:11.378Z,39.36
2023-03-11T20:12:55.853Z,39.78
2023-03-11T20:15:30.132Z,39.75
2023-03-11T20:17:58.855Z,39.80
2023-03-11T20:20:28.325Z,39.72
2023-03-11T20:22:57.220Z,39.51
2023-03-11T20:25:26.132Z,39.65
2023-03-11T20:27:56.188Z,39.55
2023-03-11T20:30:24.965Z,39.45
2023-03-11T20:32:54.370Z,39.47
2023-03-11T20:35:23.290Z,39.70
2023-03-11T20:37:51.901Z,39.78
2023-03-11T20:40:20.954Z,39.66
2023-03-11T20:42:49.525Z,39.65
2023-03-11T20:45:21.997Z,39.69
2023-03-11T20:47:50.971Z,39.90
2023-03-11T20:50:19.787Z,39.87
2023-03-11T20:52:48.430Z,39.71
2023-03-11T20:55:17.081Z,39.93
2023-03-11T20:57:45.983Z,39.61
2023-03-11T21:00:15.468Z,39.60
2023-03-11T21:02:46.227Z,39.56
2023-03-11T21:05:15.166Z,39.39
2023-03-11T21:07:43.816Z,39.44
2023-03-11T21:10:14.028Z,39.52
2023-03-11T21:12:42.928Z,39.28
2023-03-11T21:15:12.855Z,39.18
2023-03-11T21:17:41.710Z,39.34
2023-03-11T21:20:13.521Z,39.19
2023-03-11T21:22:42.296Z,39.30
2023-03-11T21:25:11.220Z,39.09
2023-03-11T21:27:39.937Z,39.16
2023-03-11T21:30:10.390Z,39.28
2023-03-11T21:32:39.145Z,39.22
2023-03-11T21:35:08.511Z,39.43
2023-03-11T21:37:38.607Z,39.07
2023-03-11T21:40:09.325Z,38.98
2023-03-11T21:42:38.065Z,39.12
2023-03-11T21:45:08.147Z,38.97
2023-03-11T21:47:37.903Z,38.99
2023-03-11T21:50:07.785Z,38.95
2023-03-11T21:52:37.901Z,38.76
2023-03-11T21:55:07.512Z,38.85
2023-03-11T21:57:36.470Z,38.75
2023-03-11T22:00:07.545Z,39.62
2023-03-11T22:02:36.396Z,39.22
2023-03-11T22:05:05.461Z,39.58
2023-03-11T22:07:34.271Z,39.68
2023-03-11T22:10:04.576Z,40.07
2023-03-11T22:12:33.299Z,40.25
2023-03-11T22:15:01.941Z,40.09
2023-03-11T22:17:30.647Z,39.96
2023-03-11T22:19:59.345Z,39.95
2023-03-11T22:22:28.160Z,39.92
2023-03-11T22:24:56.850Z,39.91
2023-03-11T22:27:26.838Z,39.97
2023-03-11T22:29:55.379Z,39.83
2023-03-11T22:32:24.110Z,39.79
2023-03-11T22:34:52.663Z,39.71
2023-03-11T22:37:21.406Z,39.92
2023-03-11T22:39:50.449Z,39.64
2023-03-11T22:42:19.076Z,39.77
2023-03-11T22:44:49.238Z,39.71
2023-03-11T22:47:17.871Z,39.57
2023-03-11T22:49:46.739Z,39.75
2023-03-11T22:52:16.114Z,39.54
2023-03-11T22:54:44.986Z,39.41
2023-03-11T22:57:13.655Z,39.34
2023-03-11T22:59:42.302Z,39.36
2023-03-11T23:02:12.307Z,39.30
2023-03-11T23:04:40.824Z,39.43
2023-03-11T23:07:09.560Z,39.29
2023-03-11T23:09:38.382Z,39.37
2023-03-11T23:12:07.620Z,39.27
2023-03-11T23:14:44.645Z,39.42
2023-03-11T23:17:15.282Z,39.35
2023-03-11T23:19:44.199Z,39.19
2023-03-11T23:22:12.738Z,39.11
2023-03-11T23:24:41.475Z,39.02
2023-03-11T23:27:10.145Z,39.27
2023-03-11T23:29:39.060Z,39.25
2023-03-11T23:32:08.470Z,39.30
2023-03-11T23:34:39.287Z,39.14
2023-03-11T23:37:07.780Z,38.99
2023-03-11T23:39:36.439Z,39.08
2023-03-11T23:42:22.434Z,38.97
2023-03-11T23:44:53.826Z,38.99
2023-03-11T23:47:22.502Z,38.91
2023-03-11T23:49:52.592Z,39.01
2023-03-11T23:52:21.231Z,38.96
2023-03-11T23:54:49.847Z,38.86
2023-03-11T23:57:18.447Z,38.83
2023-03-11T23:59:47.839Z,38.95
